KGTU

Details ICAO KGTU (GTU)
Name Georgetown Muni
Region United States
Timezone America/Chicago (UTC-5.0)
Plans Departing 35
Arriving 13
Stats Elevation 790 ft / 241 m (AMSL)
Location 30.678783° -97.679490°
Runways 2
Magnetic Variation 3.766° E
Sunrise 2018-05-26 11:31:51 UTC / 2018-05-26 06:31:51 Local
Sunset 2018-05-27 01:26:36 UTC / 2018-05-26 20:26:36 Local
Advertisement - Login to hide

Runways

ID Width Length Bearing (true) Bearing (mag) Surface Threshold Offset Overrun Length
11 75 ft / 23 m 4,098 ft / 1,249 m 120.69° 116.92° Asphalt 0 ft / 0 m 0 ft / 0 m
18 100 ft / 30 m 5,016 ft / 1,529 m 183.55° 179.78° Asphalt 0 ft / 0 m 0 ft / 0 m
29 75 ft / 23 m 4,098 ft / 1,249 m 300.69° 296.92° Asphalt 0 ft / 0 m 0 ft / 0 m
36 100 ft / 30 m 5,016 ft / 1,529 m 3.55° 359.78° Asphalt 0 ft / 0 m 0 ft / 0 m

Map

Weather


0- 5 10 15 20 25 30 35+ Temperature / ° C

Clouds and Precipitation
Forecast for 2018-05-26 12:00 UTC. Updated 3 hours ago

Ground ~20,000 ft ~40,000 ft Winds

METAR

KGTU 261256Z 20007KT 10SM 26/20 A2987 RMK AO2 SLP107 T02560200

TAF

Not found

Frequencies

Recorded 135.42 MHz AWOS 3
Clearance 121.10 MHz CLNC DEL
Unicom 123.00 MHz CTAF/UNICOM
Approach 119.00 MHz AUSTIN APP/DEP
Warning: Do not use this data for real-world aviation or navigation. No guarantee of current accuracy is given.